메인 페이지
METAR-TAF:

METAR-TAF

공항 :

노보시비르스크, 러시아

톨마초보 국제공항

위도: 55-01N, 경도: 082-38E, 고도: 111m

현재 날씨관측

예보는 41분 전, 00:30시(UTC)에 발표되었습니다.
6kt
온도 -23°C
습도 76%
기압 1038 hPa
시정: 8000m

METAR: UNNT 180030Z 17003MPS 8000 NSC M23/M26 Q1038 R25/810165 R16/810165 NOSIG RMK QFE769/1025

시각: 08:11 (01:11 UTC)

예보

예보는 2 시간 11분 전, 23:00시(UTC)에 발표되었습니다.
예보 대상 시간: 18일 00시부터 18일 24시까지 (UTC)
남남서6kt, 순간 최대 풍속 16kt
시정 10km 이상
고도 3000ft 상공 구름 보통
일시적
18일 00시부터 18일 05시까지 (UTC)
시정: 1500m
고도 500ft 상공 구름 많음
박무
전환 중
18일 11시부터 18일 12시까지 (UTC)
고도 1600ft 상공 구름 많음, 적란운.
일시적
18일 12시부터 18일 24시까지 (UTC)
남남서16kt, 순간 최대 풍속 25kt
시정: 3100m
고도 1100ft 상공 구름 많음, 적란운.
약한소낙눈

TAF: UNNT 172300Z 1800/1824 20003G08MPS 9999 SCT030 TEMPO 1800/1805 1500 BR BKN005 BECMG 1811/1812 BKN016CB TEMPO 1812/1824 20008G13MPS 3100 -SHSN BKN011CB

4,000개 이상의 공항 관측 자료 및 예보 (METAR 및 TAF 보고).

지도상에서 검색 가능한 기상관측소가 노란 점과 빨간 점으로 표시되어 있습니다.

기상관측소 명을 보려면 표시 위로 마우스를 이동하세요.

날씨 관측과 예보를 보려면 클릭하세요.

지도 변경 : 확대하려면 엑스 표시가 있는 녹색 버튼, 축소하려면 빼기 표시가 있는 녹색 버튼, 다음 페이지의 지도를 보려면 녹색 화살표를 클릭하세요.


METAR-TAF: